METAR AND TAF INFORMATION
METAR FOR EKRN
ADDS - METARS form results

(1214 UTC 20 September 2018)
Data provider http://aviationweather.gov/metar/data/
 
METAR text: EKRN 201150Z AUTO 21007KT 170V240 9999NDV NCD 20/16 Q1015
Conditions at: EKRN (RONNE , DK) observed 1150 UTC 20 September 2018
Temperature: 20.0°C (68°F)
Dewpoint: 16.0°C (61°F) [RH = 78%]
Pressure (altimeter): 29.97 inches Hg (1015.0 mb)
Winds: from the SSW (210 degrees) at 8 MPH (7 knots; 3.6 m/s)
Visibility: missing
Ceiling: at least 12,000 feet AGL
Clouds: sky clear below 12,000 feet AGL
Weather: no significant weather observed at this time

METAR text: EKRN 201120Z AUTO 20007KT 9999NDV NCD 20/16 Q1015
Conditions at: EKRN (RONNE , DK) observed 1120 UTC 20 September 2018
Temperature: 20.0°C (68°F)
Dewpoint: 16.0°C (61°F) [RH = 78%]
Pressure (altimeter): 29.97 inches Hg (1015.0 mb)
Winds: from the SSW (200 degrees) at 8 MPH (7 knots; 3.6 m/s)
Visibility: missing
Ceiling: at least 12,000 feet AGL
Clouds: sky clear below 12,000 feet AGL
Weather: no significant weather observed at this time

Forecast for: EKRN (RONNE , DK)
Text: TAF EKRN 201059Z 2012/2021 22012KT CAVOK
Forecast period: 1200 to 1700 UTC 20 September 2018
Forecast type: FROM: standard forecast or significant change
Winds: from the SW (220 degrees) at 14 MPH (12 knots; 6.2 m/s)
Visibility: 6 or more miles 10+ km)
Ceiling: unknown
Clouds: missing
Weather: NSW  (no significant weather)
Text: BECMG 2017/2020 15008KT
Forecast period: 1700 to 2100 UTC 20 September 2018
Forecast type: BECOMING: Conditions expected to become as follows by 2000 UTC 20 September 2018
Winds: from the SSE (150 degrees) at 9 MPH (8 knots; 4.1 m/s)
Visibility: 6 or more miles 10+ km)
Ceiling: unknown
Clouds: missing
Weather: NSW  (no significant weather)

 AIRPORT MAP

 RUNWAY INFORMATION
Runway 11 Runway length 6568 ft Runway width 148 ft
Runway elevation 46 ft Runway displaced threshold 0 ft Runway heading 114
Runway 29 Runway length 6568 ft Runway width 148 ft
Runway elevation 51 ft Runway displaced threshold 0 ft Runway heading 294

 AIRPORT FREQUENCIES
Type APP/TWR Name Frequency 118.325 MHZ
Type MISC Name HANDLING Frequency 131.55 MHZ

 AIRPORT NEAR NAVIGATION AIDS
Type TACAN Name Ronne Frequency 112000 KHZ
Type VOR-DME Name Ronne Frequency 112000 KHZ



Copyright © 2011 - 2018 BirgenAir Virtual Airlines. All rights reserved. Developed by Goktug Unver